sensor_id;sensor_type;location;lat;lon;timestamp;pressure;altitude;pressure_sealevel;temperature;humidity
76024;BME280;64719;52.124;6.226;2023-07-24T00:00:50;100631.72;;;18.14;100.00
76024;BME280;64719;52.124;6.226;2023-07-24T00:03:16;100625.94;;;18.16;100.00
76024;BME280;64719;52.124;6.226;2023-07-24T00:05:44;100627.56;;;18.17;100.00
76024;BME280;64719;52.124;6.226;2023-07-24T00:08:11;100630.84;;;18.19;100.00
76024;BME280;64719;52.124;6.226;2023-07-24T00:10:37;100623.47;;;18.14;100.00
76024;BME280;64719;52.124;6.226;2023-07-24T00:13:04;100617.69;;;18.16;100.00
76024;BME280;64719;52.124;6.226;2023-07-24T00:15:30;100629.50;;;18.16;100.00
76024;BME280;64719;52.124;6.226;2023-07-24T00:17:57;100620.75;;;18.09;100.00
76024;BME280;64719;52.124;6.226;2023-07-24T00:20:23;100616.97;;;18.00;100.00
76024;BME280;64719;52.124;6.226;2023-07-24T00:22:52;100613.16;;;17.96;100.00
76024;BME280;64719;52.124;6.226;2023-07-24T00:25:19;100614.50;;;17.99;100.00
76024;BME280;64719;52.124;6.226;2023-07-24T00:27:45;100607.94;;;18.00;100.00
76024;BME280;64719;52.124;6.226;2023-07-24T00:30:11;100601.91;;;17.98;100.00
76024;BME280;64719;52.124;6.226;2023-07-24T00:32:38;100605.69;;;18.02;100.00
76024;BME280;64719;52.124;6.226;2023-07-24T00:35:05;100608.16;;;18.03;100.00
76024;BME280;64719;52.124;6.226;2023-07-24T00:37:31;100596.88;;;18.05;100.00
76024;BME280;64719;52.124;6.226;2023-07-24T00:39:59;100605.38;;;18.08;100.00
76024;BME280;64719;52.124;6.226;2023-07-24T00:42:26;100591.38;;;18.10;100.00
76024;BME280;64719;52.124;6.226;2023-07-24T00:44:52;100588.91;;;18.08;100.00
76024;BME280;64719;52.124;6.226;2023-07-24T00:47:18;100580.13;;;18.06;100.00
76024;BME280;64719;52.124;6.226;2023-07-24T00:49:45;100585.97;;;18.00;100.00
76024;BME280;64719;52.124;6.226;2023-07-24T00:52:12;100595.28;;;17.99;100.00
76024;BME280;64719;52.124;6.226;2023-07-24T00:54:40;100590.63;;;17.99;100.00
76024;BME280;64719;52.124;6.226;2023-07-24T00:57:08;100571.41;;;17.99;100.00
76024;BME280;64719;52.124;6.226;2023-07-24T00:59:35;100568.13;;;17.97;100.00
76024;BME280;64719;52.124;6.226;2023-07-24T01:02:01;100567.53;;;18.00;100.00
76024;BME280;64719;52.124;6.226;2023-07-24T01:04:28;100571.38;;;18.04;100.00
76024;BME280;64719;52.124;6.226;2023-07-24T01:06:55;100558.22;;;18.01;100.00
76024;BME280;64719;52.124;6.226;2023-07-24T01:09:21;100555.75;;;18.00;100.00
76024;BME280;64719;52.124;6.226;2023-07-24T01:11:52;100554.94;;;17.99;100.00
76024;BME280;64719;52.124;6.226;2023-07-24T01:14:27;100544.81;;;17.95;100.00
76024;BME280;64719;52.124;6.226;2023-07-24T01:16:56;100538.31;;;17.86;100.00
76024;BME280;64719;52.124;6.226;2023-07-24T01:19:34;100532.81;;;17.86;100.00
76024;BME280;64719;52.124;6.226;2023-07-24T01:22:20;100533.09;;;17.84;100.00
76024;BME280;64719;52.124;6.226;2023-07-24T01:25:04;100535.28;;;17.82;100.00
76024;BME280;64719;52.124;6.226;2023-07-24T01:27:33;100531.22;;;17.80;100.00
76024;BME280;64719;52.124;6.226;2023-07-24T01:30:00;100538.88;;;17.83;100.00
76024;BME280;64719;52.124;6.226;2023-07-24T01:32:27;100542.94;;;17.90;100.00
76024;BME280;64719;52.124;6.226;2023-07-24T01:34:53;100537.16;;;17.92;100.00
76024;BME280;64719;52.124;6.226;2023-07-24T01:37:21;100533.56;;;17.91;100.00
76024;BME280;64719;52.124;6.226;2023-07-24T01:39:49;100533.31;;;17.88;100.00
76024;BME280;64719;52.124;6.226;2023-07-24T01:42:16;100529.19;;;17.90;100.00
76024;BME280;64719;52.124;6.226;2023-07-24T01:44:44;100524.28;;;17.87;100.00
76024;BME280;64719;52.124;6.226;2023-07-24T01:47:11;100524.28;;;17.87;100.00
76024;BME280;64719;52.124;6.226;2023-07-24T01:49:37;100513.59;;;17.86;100.00
76024;BME280;64719;52.124;6.226;2023-07-24T01:52:04;100504.56;;;17.80;100.00
76024;BME280;64719;52.124;6.226;2023-07-24T01:54:30;100513.66;;;17.76;100.00
76024;BME280;64719;52.124;6.226;2023-07-24T01:56:57;100507.94;;;17.72;100.00
76024;BME280;64719;52.124;6.226;2023-07-24T01:59:24;100508.22;;;17.71;100.00
76024;BME280;64719;52.124;6.226;2023-07-24T02:01:51;100498.03;;;17.71;100.00
76024;BME280;64719;52.124;6.226;2023-07-24T02:04:18;100502.75;;;17.71;100.00
76024;BME280;64719;52.124;6.226;2023-07-24T02:06:47;100490.94;;;17.70;100.00
76024;BME280;64719;52.124;6.226;2023-07-24T02:09:14;100493.72;;;17.65;100.00
76024;BME280;64719;52.124;6.226;2023-07-24T02:11:40;100499.47;;;17.64;100.00
76024;BME280;64719;52.124;6.226;2023-07-24T02:14:07;100489.88;;;17.66;100.00
76024;BME280;64719;52.124;6.226;2023-07-24T02:16:33;100497.81;;;17.68;100.00
76024;BME280;64719;52.124;6.226;2023-07-24T02:19:01;100488.19;;;17.70;100.00
76024;BME280;64719;52.124;6.226;2023-07-24T02:21:28;100491.97;;;17.74;100.00
76024;BME280;64719;52.124;6.226;2023-07-24T02:23:54;100487.56;;;17.78;100.00
76024;BME280;64719;52.124;6.226;2023-07-24T02:26:20;100487.50;;;17.83;100.00
76024;BME280;64719;52.124;6.226;2023-07-24T02:28:47;100484.47;;;17.85;100.00
76024;BME280;64719;52.124;6.226;2023-07-24T02:31:13;100491.34;;;17.87;100.00
76024;BME280;64719;52.124;6.226;2023-07-24T02:33:40;100482.28;;;17.87;100.00
76024;BME280;64719;52.124;6.226;2023-07-24T02:36:08;100485.84;;;17.87;100.00
76024;BME280;64719;52.124;6.226;2023-07-24T02:38:34;100483.97;;;17.83;100.00
76024;BME280;64719;52.124;6.226;2023-07-24T02:41:02;100485.59;;;17.84;100.00
76024;BME280;64719;52.124;6.226;2023-07-24T02:43:31;100486.94;;;17.86;100.00
76024;BME280;64719;52.124;6.226;2023-07-24T02:46:00;100477.91;;;17.86;100.00
76024;BME280;64719;52.124;6.226;2023-07-24T02:48:27;100483.63;;;17.89;100.00
76024;BME280;64719;52.124;6.226;2023-07-24T02:50:54;100480.34;;;17.87;100.00
76024;BME280;64719;52.124;6.226;2023-07-24T02:53:22;100469.88;;;17.89;100.00
76024;BME280;64719;52.124;6.226;2023-07-24T02:55:49;100476.97;;;17.95;100.00
76024;BME280;64719;52.124;6.226;2023-07-24T02:58:15;100488.25;;;17.94;100.00
76024;BME280;64719;52.124;6.226;2023-07-24T03:00:42;100478.91;;;17.95;100.00
76024;BME280;64719;52.124;6.226;2023-07-24T03:03:08;100476.72;;;17.97;100.00
76024;BME280;64719;52.124;6.226;2023-07-24T03:05:35;100472.56;;;17.99;100.00
76024;BME280;64719;52.124;6.226;2023-07-24T03:08:02;100466.47;;;18.02;100.00
76024;BME280;64719;52.124;6.226;2023-07-24T03:10:30;100461.53;;;18.04;100.00
76024;BME280;64719;52.124;6.226;2023-07-24T03:12:56;100460.16;;;18.02;100.00
76024;BME280;64719;52.124;6.226;2023-07-24T03:15:22;100461.00;;;18.02;100.00
76024;BME280;64719;52.124;6.226;2023-07-24T03:17:49;100461.00;;;18.02;100.00
76024;BME280;64719;52.124;6.226;2023-07-24T03:20:17;100450.59;;;17.99;100.00
76024;BME280;64719;52.124;6.226;2023-07-24T03:22:44;100454.47;;;17.98;100.00
76024;BME280;64719;52.124;6.226;2023-07-24T03:25:11;100449.59;;;17.90;100.00
76024;BME280;64719;52.124;6.226;2023-07-24T03:27:39;100452.38;;;17.85;100.00
76024;BME280;64719;52.124;6.226;2023-07-24T03:30:06;100448.28;;;17.83;100.00
76024;BME280;64719;52.124;6.226;2023-07-24T03:32:33;100450.78;;;17.79;100.00
76024;BME280;64719;52.124;6.226;2023-07-24T03:35:00;100454.94;;;17.77;100.00
76024;BME280;64719;52.124;6.226;2023-07-24T03:37:26;100440.41;;;17.71;100.00
76024;BME280;64719;52.124;6.226;2023-07-24T03:39:53;100443.97;;;17.72;100.00
76024;BME280;64719;52.124;6.226;2023-07-24T03:42:26;100436.03;;;17.70;100.00
76024;BME280;64719;52.124;6.226;2023-07-24T03:44:55;100444.53;;;17.74;100.00
76024;BME280;64719;52.124;6.226;2023-07-24T03:47:21;100455.22;;;17.75;100.00
76024;BME280;64719;52.124;6.226;2023-07-24T03:49:48;100449.94;;;17.79;100.00
76024;BME280;64719;52.124;6.226;2023-07-24T03:52:15;100455.72;;;17.77;100.00
76024;BME280;64719;52.124;6.226;2023-07-24T03:54:42;100442.84;;;17.78;100.00
76024;BME280;64719;52.124;6.226;2023-07-24T03:57:09;100436.00;;;17.75;100.00
76024;BME280;64719;52.124;6.226;2023-07-24T03:59:36;100437.91;;;17.75;100.00
76024;BME280;64719;52.124;6.226;2023-07-24T04:02:04;100425.31;;;17.74;100.00
76024;BME280;64719;52.124;6.226;2023-07-24T04:04:31;100430.25;;;17.72;100.00
76024;BME280;64719;52.124;6.226;2023-07-24T04:06:58;100432.19;;;17.71;100.00
76024;BME280;64719;52.124;6.226;2023-07-24T04:09:24;100428.34;;;17.72;100.00
76024;BME280;64719;52.124;6.226;2023-07-24T04:11:51;100434.91;;;17.71;100.00
76024;BME280;64719;52.124;6.226;2023-07-24T04:14:17;100431.97;;;17.68;100.00
76024;BME280;64719;52.124;6.226;2023-07-24T04:16:44;100431.16;;;17.62;100.00
76024;BME280;64719;52.124;6.226;2023-07-24T04:19:12;100437.47;;;17.63;100.00
76024;BME280;64719;52.124;6.226;2023-07-24T04:21:39;100442.72;;;17.59;100.00
76024;BME280;64719;52.124;6.226;2023-07-24T04:24:06;100438.09;;;17.55;100.00
76024;BME280;64719;52.124;6.226;2023-07-24T04:26:32;100432.66;;;17.50;100.00
76024;BME280;64719;52.124;6.226;2023-07-24T04:28:59;100441.69;;;17.50;100.00
76024;BME280;64719;52.124;6.226;2023-07-24T04:31:25;100441.69;;;17.50;100.00
76024;BME280;64719;52.124;6.226;2023-07-24T04:33:52;100440.63;;;17.46;100.00
76024;BME280;64719;52.124;6.226;2023-07-24T04:36:20;100435.97;;;17.47;100.00
76024;BME280;64719;52.124;6.226;2023-07-24T04:38:46;100436.19;;;17.50;100.00
76024;BME280;64719;52.124;6.226;2023-07-24T04:41:13;100446.41;;;17.45;100.00
76024;BME280;64719;52.124;6.226;2023-07-24T04:43:39;100443.97;;;17.43;100.00
76024;BME280;64719;52.124;6.226;2023-07-24T04:46:06;100449.69;;;17.42;100.00
76024;BME280;64719;52.124;6.226;2023-07-24T04:48:32;100444.78;;;17.39;100.00
76024;BME280;64719;52.124;6.226;2023-07-24T04:50:59;100454.13;;;17.38;100.00
76024;BME280;64719;52.124;6.226;2023-07-24T04:53:27;100445.34;;;17.36;100.00
76024;BME280;64719;52.124;6.226;2023-07-24T04:55:53;100419.25;;;17.38;100.00
76024;BME280;64719;52.124;6.226;2023-07-24T04:58:20;100428.59;;;17.37;100.00
76024;BME280;64719;52.124;6.226;2023-07-24T05:00:46;100414.06;;;17.37;100.00
76024;BME280;64719;52.124;6.226;2023-07-24T05:03:13;100428.31;;;17.39;100.00
76024;BME280;64719;52.124;6.226;2023-07-24T05:05:41;100432.19;;;17.38;100.00
76024;BME280;64719;52.124;6.226;2023-07-24T05:08:08;100439.88;;;17.36;100.00
76024;BME280;64719;52.124;6.226;2023-07-24T05:10:36;100431.59;;;17.46;100.00
76024;BME280;64719;52.124;6.226;2023-07-24T05:13:03;100436.78;;;17.47;100.00
76024;BME280;64719;52.124;6.226;2023-07-24T05:15:29;100444.25;;;17.37;100.00
76024;BME280;64719;52.124;6.226;2023-07-24T05:17:56;100446.94;;;17.42;100.00
76024;BME280;64719;52.124;6.226;2023-07-24T05:20:23;100446.97;;;17.37;100.00
76024;BME280;64719;52.124;6.226;2023-07-24T05:22:49;100442.59;;;17.41;100.00
76024;BME280;64719;52.124;6.226;2023-07-24T05:25:16;100438.72;;;17.42;100.00
76024;BME280;64719;52.124;6.226;2023-07-24T05:27:43;100450.50;;;17.47;100.00
76024;BME280;64719;52.124;6.226;2023-07-24T05:30:10;100451.63;;;17.46;100.00
76024;BME280;64719;52.124;6.226;2023-07-24T05:32:36;100454.34;;;17.46;100.00
76024;BME280;64719;52.124;6.226;2023-07-24T05:35:02;100454.25;;;17.56;100.00
76024;BME280;64719;52.124;6.226;2023-07-24T05:37:29;100458.41;;;17.54;100.00
76024;BME280;64719;52.124;6.226;2023-07-24T05:39:55;100445.75;;;17.58;100.00
76024;BME280;64719;52.124;6.226;2023-07-24T05:42:22;100451.22;;;17.58;100.00
76024;BME280;64719;52.124;6.226;2023-07-24T05:44:50;100457.28;;;17.55;100.00
76024;BME280;64719;52.124;6.226;2023-07-24T05:47:16;100459.72;;;17.61;100.00
76024;BME280;64719;52.124;6.226;2023-07-24T05:49:43;100452.34;;;17.57;100.00
76024;BME280;64719;52.124;6.226;2023-07-24T05:52:09;100462.75;;;17.60;100.00
76024;BME280;64719;52.124;6.226;2023-07-24T05:54:36;100458.84;;;17.66;100.00
76024;BME280;64719;52.124;6.226;2023-07-24T05:57:03;100461.22;;;17.77;100.00
76024;BME280;64719;52.124;6.226;2023-07-24T05:59:29;100459.19;;;17.88;100.00
76024;BME280;64719;52.124;6.226;2023-07-24T06:01:57;100464.34;;;17.94;100.00
76024;BME280;64719;52.124;6.226;2023-07-24T06:04:24;100458.78;;;18.04;100.00
76024;BME280;64719;52.124;6.226;2023-07-24T06:06:50;100461.72;;;18.13;100.00
76024;BME280;64719;52.124;6.226;2023-07-24T06:09:17;100464.59;;;18.27;100.00
76024;BME280;64719;52.124;6.226;2023-07-24T06:11:43;100459.84;;;18.32;100.00
76024;BME280;64719;52.124;6.226;2023-07-24T06:14:10;100463.28;;;18.48;100.00
76024;BME280;64719;52.124;6.226;2023-07-24T06:16:36;100458.72;;;18.62;100.00
76024;BME280;64719;52.124;6.226;2023-07-24T06:19:04;100458.56;;;18.72;100.00
76024;BME280;64719;52.124;6.226;2023-07-24T06:21:31;100458.13;;;18.65;100.00
76024;BME280;64719;52.124;6.226;2023-07-24T06:23:57;100460.56;;;18.66;100.00
76024;BME280;64719;52.124;6.226;2023-07-24T06:26:24;100461.63;;;18.70;100.00
76024;BME280;64719;52.124;6.226;2023-07-24T06:28:51;100469.28;;;18.73;100.00
76024;BME280;64719;52.124;6.226;2023-07-24T06:31:17;100464.03;;;18.77;100.00
76024;BME280;64719;52.124;6.226;2023-07-24T06:33:44;100471.38;;;18.58;100.00
76024;BME280;64719;52.124;6.226;2023-07-24T06:36:11;100464.59;;;18.74;100.00
76024;BME280;64719;52.124;6.226;2023-07-24T06:38:38;100470.78;;;19.03;100.00
76024;BME280;64719;52.124;6.226;2023-07-24T06:41:05;100466.72;;;19.00;100.00
76024;BME280;64719;52.124;6.226;2023-07-24T06:43:31;100465.81;;;19.28;100.00
76024;BME280;64719;52.124;6.226;2023-07-24T06:45:58;100462.44;;;19.31;100.00
76024;BME280;64719;52.124;6.226;2023-07-24T06:48:24;100460.78;;;19.49;100.00
76024;BME280;64719;52.124;6.226;2023-07-24T06:50:51;100457.66;;;19.55;100.00
76024;BME280;64719;52.124;6.226;2023-07-24T06:53:19;100454.69;;;19.84;100.00
76024;BME280;64719;52.124;6.226;2023-07-24T06:55:45;100451.03;;;21.46;100.00
76024;BME280;64719;52.124;6.226;2023-07-24T06:58:12;100451.84;;;20.62;100.00
76024;BME280;64719;52.124;6.226;2023-07-24T07:00:38;100433.56;;;20.39;100.00
76024;BME280;64719;52.124;6.226;2023-07-24T07:03:05;100445.19;;;23.17;100.00
76024;BME280;64719;52.124;6.226;2023-07-24T07:05:32;100435.50;;;24.17;100.00
76024;BME280;64719;52.124;6.226;2023-07-24T07:07:58;100440.84;;;22.21;100.00
76024;BME280;64719;52.124;6.226;2023-07-24T07:10:26;100437.34;;;26.03;100.00
76024;BME280;64719;52.124;6.226;2023-07-24T07:12:53;100433.28;;;25.80;100.00
76024;BME280;64719;52.124;6.226;2023-07-24T07:15:20;100433.19;;;26.09;100.00
76024;BME280;64719;52.124;6.226;2023-07-24T07:17:46;100439.47;;;23.99;100.00
76024;BME280;64719;52.124;6.226;2023-07-24T07:20:13;100449.16;;;21.99;100.00
76024;BME280;64719;52.124;6.226;2023-07-24T07:22:40;100446.59;;;21.01;100.00
76024;BME280;64719;52.124;6.226;2023-07-24T07:25:06;100443.72;;;20.92;100.00
76024;BME280;64719;52.124;6.226;2023-07-24T07:27:34;100439.53;;;21.88;100.00
76024;BME280;64719;52.124;6.226;2023-07-24T07:30:01;100440.63;;;21.21;100.00
76024;BME280;64719;52.124;6.226;2023-07-24T07:32:28;100443.53;;;20.89;100.00
76024;BME280;64719;52.124;6.226;2023-07-24T07:34:54;100440.13;;;21.63;100.00
76024;BME280;64719;52.124;6.226;2023-07-24T07:37:21;100448.06;;;20.71;100.00
76024;BME280;64719;52.124;6.226;2023-07-24T07:39:47;100441.00;;;19.79;100.00
76024;BME280;64719;52.124;6.226;2023-07-24T07:42:14;100449.06;;;19.89;100.00
76024;BME280;64719;52.124;6.226;2023-07-24T07:44:42;100434.63;;;19.65;100.00
76024;BME280;64719;52.124;6.226;2023-07-24T07:47:08;100437.78;;;19.58;100.00
76024;BME280;64719;52.124;6.226;2023-07-24T07:49:35;100445.44;;;19.61;100.00
76024;BME280;64719;52.124;6.226;2023-07-24T07:52:02;100447.03;;;19.81;100.00
76024;BME280;64719;52.124;6.226;2023-07-24T07:54:28;100450.41;;;20.51;100.00
76024;BME280;64719;52.124;6.226;2023-07-24T07:56:55;100454.94;;;22.98;100.00
76024;BME280;64719;52.124;6.226;2023-07-24T07:59:21;100441.47;;;21.88;100.00
76024;BME280;64719;52.124;6.226;2023-07-24T08:01:49;100433.38;;;24.89;100.00
76024;BME280;64719;52.124;6.226;2023-07-24T08:04:16;100427.22;;;22.72;100.00
76024;BME280;64719;52.124;6.226;2023-07-24T08:06:43;100423.84;;;22.36;100.00
76024;BME280;64719;52.124;6.226;2023-07-24T08:09:10;100421.81;;;21.23;100.00
76024;BME280;64719;52.124;6.226;2023-07-24T08:11:36;100414.16;;;21.42;100.00
76024;BME280;64719;52.124;6.226;2023-07-24T08:14:03;100429.81;;;22.77;100.00
76024;BME280;64719;52.124;6.226;2023-07-24T08:16:30;100419.41;;;23.85;100.00
76024;BME280;64719;52.124;6.226;2023-07-24T08:18:58;100429.53;;;22.87;100.00
76024;BME280;64719;52.124;6.226;2023-07-24T08:21:24;100435.41;;;21.77;100.00
76024;BME280;64719;52.124;6.226;2023-07-24T08:23:51;100425.94;;;22.78;100.00
76024;BME280;64719;52.124;6.226;2023-07-24T08:26:17;100427.06;;;26.76;100.00
76024;BME280;64719;52.124;6.226;2023-07-24T08:28:44;100414.53;;;24.95;100.00
76024;BME280;64719;52.124;6.226;2023-07-24T08:31:10;100417.19;;;23.19;100.00
76024;BME280;64719;52.124;6.226;2023-07-24T08:33:37;100428.41;;;22.41;100.00
76024;BME280;64719;52.124;6.226;2023-07-24T08:36:06;100423.13;;;21.47;100.00
76024;BME280;64719;52.124;6.226;2023-07-24T08:38:33;100426.38;;;20.78;100.00
76024;BME280;64719;52.124;6.226;2023-07-24T08:41:04;100448.38;;;20.43;100.00
76024;BME280;64719;52.124;6.226;2023-07-24T08:43:32;100430.56;;;20.08;100.00
76024;BME280;64719;52.124;6.226;2023-07-24T08:45:59;100443.66;;;20.43;100.00
76024;BME280;64719;52.124;6.226;2023-07-24T08:48:27;100441.81;;;21.28;100.00
76024;BME280;64719;52.124;6.226;2023-07-24T08:50:56;100436.50;;;21.76;100.00
76024;BME280;64719;52.124;6.226;2023-07-24T08:53:25;100435.00;;;24.61;100.00
76024;BME280;64719;52.124;6.226;2023-07-24T08:55:52;100434.03;;;27.06;100.00
76024;BME280;64719;52.124;6.226;2023-07-24T08:58:20;100426.47;;;27.07;100.00
76024;BME280;64719;52.124;6.226;2023-07-24T09:00:46;100427.88;;;26.89;100.00
76024;BME280;64719;52.124;6.226;2023-07-24T09:03:13;100425.13;;;26.76;100.00
76024;BME280;64719;52.124;6.226;2023-07-24T09:05:39;100424.38;;;27.04;100.00
76024;BME280;64719;52.124;6.226;2023-07-24T09:08:06;100420.91;;;26.34;100.00
76024;BME280;64719;52.124;6.226;2023-07-24T09:10:34;100413.72;;;25.89;100.00
76024;BME280;64719;52.124;6.226;2023-07-24T09:13:00;100415.81;;;26.60;100.00
76024;BME280;64719;52.124;6.226;2023-07-24T09:15:29;100409.72;;;27.58;100.00
76024;BME280;64719;52.124;6.226;2023-07-24T09:17:55;100402.81;;;26.40;100.00
76024;BME280;64719;52.124;6.226;2023-07-24T09:20:22;100400.97;;;26.44;100.00
76024;BME280;64719;52.124;6.226;2023-07-24T09:22:49;100406.59;;;27.87;100.00
76024;BME280;64719;52.124;6.226;2023-07-24T09:25:16;100401.47;;;27.62;100.00
76024;BME280;64719;52.124;6.226;2023-07-24T09:27:44;100390.56;;;28.62;100.00
76024;BME280;64719;52.124;6.226;2023-07-24T09:30:12;100394.28;;;29.73;95.97
76024;BME280;64719;52.124;6.226;2023-07-24T09:32:40;100382.84;;;29.25;93.81
76024;BME280;64719;52.124;6.226;2023-07-24T09:35:16;100395.28;;;29.27;91.51
76024;BME280;64719;52.124;6.226;2023-07-24T09:37:45;100379.34;;;28.59;96.08
76024;BME280;64719;52.124;6.226;2023-07-24T09:40:14;100378.13;;;29.10;94.31
76024;BME280;64719;52.124;6.226;2023-07-24T09:42:41;100372.91;;;29.65;91.50
76024;BME280;64719;52.124;6.226;2023-07-24T09:45:09;100363.81;;;28.96;93.90
76024;BME280;64719;52.124;6.226;2023-07-24T09:47:37;100370.00;;;26.58;100.00
76024;BME280;64719;52.124;6.226;2023-07-24T09:50:06;100358.59;;;28.44;96.34
76024;BME280;64719;52.124;6.226;2023-07-24T09:52:34;100366.97;;;28.60;96.34
76024;BME280;64719;52.124;6.226;2023-07-24T09:55:06;100365.25;;;26.34;100.00
76024;BME280;64719;52.124;6.226;2023-07-24T09:57:37;100353.38;;;26.86;100.00
76024;BME280;64719;52.124;6.226;2023-07-24T10:00:05;100353.56;;;26.65;100.00
76024;BME280;64719;52.124;6.226;2023-07-24T10:02:34;100360.91;;;27.37;100.00
76024;BME280;64719;52.124;6.226;2023-07-24T10:05:01;100360.56;;;26.99;100.00
76024;BME280;64719;52.124;6.226;2023-07-24T10:07:28;100354.06;;;27.34;100.00
76024;BME280;64719;52.124;6.226;2023-07-24T10:09:56;100355.28;;;27.49;100.00
76024;BME280;64719;52.124;6.226;2023-07-24T10:12:23;100352.16;;;26.11;100.00
76024;BME280;64719;52.124;6.226;2023-07-24T10:14:53;100351.03;;;25.14;100.00
76024;BME280;64719;52.124;6.226;2023-07-24T10:17:38;100355.44;;;24.45;100.00
76024;BME280;64719;52.124;6.226;2023-07-24T10:20:06;100347.09;;;23.61;100.00
76024;BME280;64719;52.124;6.226;2023-07-24T10:22:34;100333.97;;;23.07;100.00
76024;BME280;64719;52.124;6.226;2023-07-24T10:25:00;100337.88;;;23.40;100.00
76024;BME280;64719;52.124;6.226;2023-07-24T10:27:27;100334.13;;;23.45;100.00
76024;BME280;64719;52.124;6.226;2023-07-24T10:30:00;100326.16;;;23.98;100.00
76024;BME280;64719;52.124;6.226;2023-07-24T10:32:27;100331.47;;;24.11;100.00
76024;BME280;64719;52.124;6.226;2023-07-24T10:35:00;100324.34;;;23.38;100.00
76024;BME280;64719;52.124;6.226;2023-07-24T10:37:33;100327.94;;;23.30;100.00
76024;BME280;64719;52.124;6.226;2023-07-24T10:40:00;100323.53;;;22.70;100.00
76024;BME280;64719;52.124;6.226;2023-07-24T10:42:28;100329.91;;;22.14;100.00
76024;BME280;64719;52.124;6.226;2023-07-24T10:45:04;100322.09;;;22.08;100.00
76024;BME280;64719;52.124;6.226;2023-07-24T10:47:31;100322.50;;;22.49;100.00
76024;BME280;64719;52.124;6.226;2023-07-24T10:49:59;100339.81;;;22.97;100.00
76024;BME280;64719;52.124;6.226;2023-07-24T10:52:29;100337.69;;;22.51;100.00
76024;BME280;64719;52.124;6.226;2023-07-24T10:54:56;100332.84;;;22.74;100.00
76024;BME280;64719;52.124;6.226;2023-07-24T10:57:25;100326.78;;;22.80;100.00
76024;BME280;64719;52.124;6.226;2023-07-24T10:59:52;100337.69;;;22.51;100.00
76024;BME280;64719;52.124;6.226;2023-07-24T11:02:19;100354.09;;;22.56;100.00
76024;BME280;64719;52.124;6.226;2023-07-24T11:04:45;100340.31;;;22.65;100.00
76024;BME280;64719;52.124;6.226;2023-07-24T11:07:14;100342.91;;;22.70;100.00
76024;BME280;64719;52.124;6.226;2023-07-24T11:09:41;100348.63;;;22.90;100.00
76024;BME280;64719;52.124;6.226;2023-07-24T11:12:13;100341.97;;;22.18;100.00
76024;BME280;64719;52.124;6.226;2023-07-24T11:14:47;100340.78;;;22.58;100.00
76024;BME280;64719;52.124;6.226;2023-07-24T11:17:14;100347.31;;;22.23;100.00
76024;BME280;64719;52.124;6.226;2023-07-24T11:19:40;100357.00;;;22.04;100.00
76024;BME280;64719;52.124;6.226;2023-07-24T11:22:07;100366.00;;;22.09;100.00
76024;BME280;64719;52.124;6.226;2023-07-24T11:24:42;100369.31;;;21.89;100.00
76024;BME280;64719;52.124;6.226;2023-07-24T11:27:10;100369.41;;;21.76;100.00
76024;BME280;64719;52.124;6.226;2023-07-24T11:29:38;100389.75;;;21.80;100.00
76024;BME280;64719;52.124;6.226;2023-07-24T11:32:05;100380.81;;;22.13;100.00
76024;BME280;64719;52.124;6.226;2023-07-24T11:34:32;100371.09;;;22.24;100.00
76024;BME280;64719;52.124;6.226;2023-07-24T11:36:59;100371.78;;;22.38;100.00
76024;BME280;64719;52.124;6.226;2023-07-24T11:39:26;100359.50;;;22.61;100.00
76024;BME280;64719;52.124;6.226;2023-07-24T11:41:54;100348.28;;;23.43;100.00
76024;BME280;64719;52.124;6.226;2023-07-24T11:44:24;100357.09;;;23.36;100.00
76024;BME280;64719;52.124;6.226;2023-07-24T11:46:51;100349.69;;;23.75;100.00
76024;BME280;64719;52.124;6.226;2023-07-24T11:49:22;100347.13;;;23.44;100.00
76024;BME280;64719;52.124;6.226;2023-07-24T11:51:49;100338.97;;;23.65;100.00
76024;BME280;64719;52.124;6.226;2023-07-24T11:54:16;100338.69;;;23.41;100.00
76024;BME280;64719;52.124;6.226;2023-07-24T11:56:43;100339.50;;;22.98;100.00
76024;BME280;64719;52.124;6.226;2023-07-24T11:59:11;100336.91;;;23.10;100.00
76024;BME280;64719;52.124;6.226;2023-07-24T12:01:38;100330.69;;;22.88;100.00
76024;BME280;64719;52.124;6.226;2023-07-24T12:04:05;100336.41;;;22.57;100.00
76024;BME280;64719;52.124;6.226;2023-07-24T12:06:32;100330.00;;;22.48;100.00
76024;BME280;64719;52.124;6.226;2023-07-24T12:09:02;100319.56;;;22.37;100.00
76024;BME280;64719;52.124;6.226;2023-07-24T12:11:30;100314.91;;;22.88;100.00
76024;BME280;64719;52.124;6.226;2023-07-24T12:13:57;100313.13;;;23.26;100.00
76024;BME280;64719;52.124;6.226;2023-07-24T12:16:25;100311.75;;;24.33;100.00
76024;BME280;64719;52.124;6.226;2023-07-24T12:18:51;100314.56;;;25.36;100.00
76024;BME280;64719;52.124;6.226;2023-07-24T12:21:18;100315.47;;;25.07;100.00
76024;BME280;64719;52.124;6.226;2023-07-24T12:23:44;100320.53;;;24.64;100.00
76024;BME280;64719;52.124;6.226;2023-07-24T12:26:11;100309.94;;;26.33;100.00
76024;BME280;64719;52.124;6.226;2023-07-24T12:28:37;100311.97;;;25.31;100.00
76024;BME280;64719;52.124;6.226;2023-07-24T12:31:04;100320.53;;;27.19;100.00
76024;BME280;64719;52.124;6.226;2023-07-24T12:33:33;100317.97;;;26.98;100.00
76024;BME280;64719;52.124;6.226;2023-07-24T12:35:59;100308.72;;;27.65;100.00
76024;BME280;64719;52.124;6.226;2023-07-24T12:38:27;100315.53;;;25.64;100.00
76024;BME280;64719;52.124;6.226;2023-07-24T12:40:53;100318.16;;;24.25;100.00